TAF PHNL
PHNL 280541Z 2806/2912 04008KT P6SM FEW025 SCT050 FM282000 05012G20KT P6SM FEW025 SCT050 FM290600 05008KT P6SM FEW025 SCT050=
METAR PHNL
WC PHNL
WS PHNL
WV PHNL